Time;durP1;ratioP1;P1;durP2;ratioP2;P2;SDS_P1;SDS_P2;PMS_P1;PMS_P2;Temp;Humidity;BMP_temperature;BMP_pressure;BME280_temperature;BME280_humidity;BME280_pressure;Samples;Min_cycle;Max_cycle;Signal;HPM_P1;HPM_P2
2021/08/24 00:00:56;;;;;;;40.20;19.20;;;;;;;15.25;87.40;94511.48;1789046;80;20950;-56
2021/08/24 00:03:23;;;;;;;50.95;19.77;;;;;;;15.26;87.33;94504.09;1789601;80;21048;-55
2021/08/24 00:05:49;;;;;;;54.73;21.68;;;;;;;15.29;87.28;94505.92;1789017;80;21073;-55
2021/08/24 00:08:16;;;;;;;63.42;20.30;;;;;;;15.27;87.21;94494.53;1789100;80;20938;-55
2021/08/24 00:10:48;;;;;;;50.38;19.48;;;;;;;15.28;87.11;94502.98;1789073;80;21012;-56
2021/08/24 00:13:17;;;;;;;42.35;16.75;;;;;;;15.27;86.99;94502.84;1788187;80;21013;-56
2021/08/24 00:15:44;;;;;;;47.33;17.80;;;;;;;15.27;86.99;94495.14;1789375;80;21517;-56
2021/08/24 00:18:12;;;;;;;42.38;16.40;;;;;;;15.23;86.96;94492.59;1789040;80;21029;-56
2021/08/24 00:20:41;;;;;;;38.28;15.28;;;;;;;15.21;87.08;94499.21;1789078;80;20946;-55
2021/08/24 00:23:10;;;;;;;36.17;14.70;;;;;;;15.21;87.10;94488.77;1789116;80;20958;-56
2021/08/24 00:25:37;;;;;;;36.55;14.70;;;;;;;15.22;87.10;94486.12;1789276;80;21431;-56
2021/08/24 00:28:05;;;;;;;52.17;15.28;;;;;;;15.20;87.25;94476.16;1789064;80;21041;-56
2021/08/24 00:30:31;;;;;;;38.73;14.85;;;;;;;15.22;87.22;94484.11;1788985;80;21153;-56
2021/08/24 00:32:58;;;;;;;35.17;14.07;;;;;;;15.24;87.28;94476.70;1789065;80;20942;-56
2021/08/24 00:35:25;;;;;;;28.45;13.20;;;;;;;15.24;87.37;94480.25;1789392;80;21520;-56
2021/08/24 00:37:52;;;;;;;37.70;13.78;;;;;;;15.27;87.42;94476.52;1788921;80;21076;-56
2021/08/24 00:40:19;;;;;;;32.93;13.65;;;;;;;15.31;87.41;94468.00;1789064;78;20961;-56
2021/08/24 00:42:46;;;;;;;30.90;14.75;;;;;;;15.33;87.41;94479.39;1789028;80;21127;-56
2021/08/24 00:45:14;;;;;;;31.73;13.30;;;;;;;15.35;87.46;94472.10;1788931;80;21037;-56
2021/08/24 00:47:44;;;;;;;25.25;12.43;;;;;;;15.39;87.28;94467.11;1789030;80;20950;-56
2021/08/24 00:50:40;;;;;;;27.80;14.25;;;;;;;15.41;87.00;94467.41;1788184;80;20942;-56
2021/08/24 00:53:11;;;;;;;23.35;13.38;;;;;;;15.37;86.83;94466.83;1789262;80;20974;-55
2021/08/24 00:55:40;;;;;;;28.10;13.20;;;;;;;15.31;86.96;94470.16;1789427;80;21114;-56
2021/08/24 00:58:10;;;;;;;27.30;12.53;;;;;;;15.30;87.02;94460.94;1788984;80;20934;-56
2021/08/24 01:00:37;;;;;;;30.00;11.95;;;;;;;15.30;86.92;94464.48;1789241;80;20990;-56
2021/08/24 01:03:16;;;;;;;25.97;11.45;;;;;;;15.29;87.28;94458.80;1789021;80;21021;-56
2021/08/24 01:05:44;;;;;;;21.48;12.15;;;;;;;15.31;87.33;94457.69;1788239;80;20997;-56
2021/08/24 01:08:39;;;;;;;28.17;13.70;;;;;;;15.30;87.42;94456.78;1789031;80;21213;-56
2021/08/24 01:11:29;;;;;;;24.72;11.53;;;;;;;15.31;87.53;94456.30;1789115;80;20937;-56
2021/08/24 01:14:45;;;;;;;22.22;12.45;;;;;;;15.30;87.43;94456.78;1789108;80;20934;-55
2021/08/24 01:17:39;;;;;;;26.00;12.58;;;;;;;15.27;87.44;94454.34;1789060;80;21037;-55
2021/08/24 01:20:37;;;;;;;31.07;14.05;;;;;;;15.29;87.55;94452.48;1788864;80;20942;-56
2021/08/24 01:23:44;;;;;;;21.35;12.75;;;;;;;15.29;87.49;94442.78;1789418;80;21545;-55
2021/08/24 01:26:44;;;;;;;29.77;13.48;;;;;;;15.31;87.60;94452.76;1788764;80;21418;-55
2021/08/24 01:29:44;;;;;;;30.48;12.68;;;;;;;15.30;87.87;94454.78;1789367;80;21064;-54
2021/08/24 01:32:25;;;;;;;29.65;15.40;;;;;;;15.34;87.58;94453.95;1789775;80;21202;-55
2021/08/24 01:35:21;;;;;;;39.78;13.78;;;;;;;15.34;87.50;94451.81;1789416;80;21080;-55
2021/08/24 01:38:19;;;;;;;25.10;11.60;;;;;;;15.37;87.49;94457.77;1788712;80;21061;-55
2021/08/24 01:41:09;;;;;;;18.30;10.58;;;;;;;15.36;87.30;94453.48;1789002;78;20954;-56
2021/08/24 01:44:01;;;;;;;16.15;10.50;;;;;;;15.35;87.36;94450.56;1789008;80;20982;-55
2021/08/24 01:46:52;;;;;;;20.80;10.00;;;;;;;15.38;87.51;94448.95;1789160;80;21382;-56
2021/08/24 01:49:20;;;;;;;17.73;11.08;;;;;;;15.46;87.46;94449.30;1789032;80;20989;-55
2021/08/24 01:51:51;;;;;;;27.73;14.47;;;;;;;15.49;87.10;94444.95;1789209;80;21133;-55
2021/08/24 01:54:25;;;;;;;31.27;13.48;;;;;;;15.46;86.93;94443.75;1788961;80;20950;-55
2021/08/24 01:56:53;;;;;;;34.90;13.40;;;;;;;15.37;86.98;94447.43;1787950;80;20989;-55
2021/08/24 01:59:35;;;;;;;29.42;14.23;;;;;;;15.33;86.88;94444.11;1789076;80;21017;-55
2021/08/24 02:02:13;;;;;;;36.90;15.78;;;;;;;15.26;86.90;94444.50;1788096;80;21025;-56
2021/08/24 02:04:54;;;;;;;28.62;14.45;;;;;;;15.23;87.14;94442.70;1789080;80;21076;-55
2021/08/24 02:07:21;;;;;;;28.45;14.10;;;;;;;15.27;87.41;94439.70;1788845;80;21458;-56
2021/08/24 02:09:51;;;;;;;25.40;12.55;;;;;;;15.28;87.43;94435.08;1758175;80;20970;-56
2021/08/24 02:12:22;;;;;;;23.83;12.55;;;;;;;15.34;87.32;94424.09;1789351;80;20988;-56
2021/08/24 02:14:48;;;;;;;23.98;11.75;;;;;;;15.38;87.24;94437.86;1788996;80;20974;-56
2021/08/24 02:17:17;;;;;;;22.70;14.28;;;;;;;15.41;87.04;94429.98;1789042;80;21125;-56
2021/08/24 02:19:51;;;;;;;22.10;12.63;;;;;;;15.39;86.87;94427.55;1789177;80;20994;-56
2021/08/24 02:22:29;;;;;;;26.33;10.82;;;;;;;15.35;87.03;94424.98;1788229;80;20973;-56
2021/08/24 02:25:16;;;;;;;16.50;10.38;;;;;;;15.35;87.10;94416.66;1789057;80;20942;-55
2021/08/24 02:28:00;;;;;;;25.62;12.68;;;;;;;15.34;87.23;94415.14;1788781;80;20997;-55
2021/08/24 02:30:28;;;;;;;35.78;14.30;;;;;;;15.36;87.58;94422.34;1788249;80;22456;-55
2021/08/24 02:32:55;;;;;;;21.85;13.40;;;;;;;15.35;87.50;94420.08;1789137;80;21041;-55
2021/08/24 02:35:30;;;;;;;21.15;11.65;;;;;;;15.33;87.88;94415.64;1789039;80;21021;-55
2021/08/24 02:38:20;;;;;;;26.27;12.93;;;;;;;15.33;87.59;94413.62;1789068;80;20962;-56
2021/08/24 02:40:55;;;;;;;31.55;15.18;;;;;;;15.30;87.62;94419.36;1788554;78;20946;-56
2021/08/24 02:43:28;;;;;;;32.38;16.50;;;;;;;15.26;87.70;94420.17;1788944;80;21154;-56
2021/08/24 02:46:23;;;;;;;36.25;16.62;;;;;;;15.25;87.72;94424.19;1758432;80;20986;-56
2021/08/24 02:48:54;;;;;;;39.42;16.10;;;;;;;15.19;87.66;94419.95;1789333;80;20945;-56
2021/08/24 02:51:22;;;;;;;32.80;17.25;;;;;;;15.14;87.53;94413.72;1789059;80;21069;-56
2021/08/24 02:53:59;;;;;;;29.77;16.82;;;;;;;15.08;87.80;94403.20;1784631;80;20965;-56
2021/08/24 02:56:27;;;;;;;31.90;16.30;;;;;;;15.07;88.08;94403.67;1788962;80;21121;-56
2021/08/24 02:58:53;;;;;;;29.40;14.40;;;;;;;15.09;88.31;94403.34;1789242;79;21037;-57
2021/08/24 03:01:21;;;;;;;30.95;14.18;;;;;;;15.07;88.45;94399.52;1788941;80;21020;-56
2021/08/24 03:03:48;;;;;;;26.42;12.65;;;;;;;15.07;88.58;94407.22;1788903;79;21077;-55
2021/08/24 03:06:15;;;;;;;27.27;12.58;;;;;;;15.09;88.66;94410.27;1788912;80;21002;-56
2021/08/24 03:08:42;;;;;;;23.52;10.58;;;;;;;15.11;88.70;94406.38;1789143;80;21520;-56
2021/08/24 03:11:08;;;;;;;14.80;10.82;;;;;;;15.13;88.77;94410.81;1788966;80;20961;-56
2021/08/24 03:13:50;;;;;;;20.88;11.95;;;;;;;15.12;88.69;94418.98;1789112;80;20986;-56
2021/08/24 03:16:38;;;;;;;31.20;12.85;;;;;;;15.10;88.87;94424.86;1788930;80;21053;-56
2021/08/24 03:19:10;;;;;;;26.87;12.40;;;;;;;15.09;88.92;94422.73;1788961;80;20998;-56
2021/08/24 03:21:38;;;;;;;21.10;11.90;;;;;;;15.10;89.07;94421.48;1788915;80;20982;-56
2021/08/24 03:24:10;;;;;;;22.60;12.45;;;;;;;15.14;89.13;94422.67;1788808;80;20993;-55
2021/08/24 03:26:39;;;;;;;24.37;12.98;;;;;;;15.17;89.31;94417.55;1788914;80;20950;-56
2021/08/24 03:29:11;;;;;;;23.92;12.43;;;;;;;15.24;89.26;94417.13;1758113;80;20989;-56
2021/08/24 03:31:39;;;;;;;25.68;12.78;;;;;;;15.30;89.21;94415.98;1788887;80;20985;-55
2021/08/24 03:34:06;;;;;;;29.87;11.60;;;;;;;15.38;88.98;94410.14;1788917;80;21780;-55
2021/08/24 03:36:33;;;;;;;25.40;12.05;;;;;;;15.45;88.67;94411.12;1788840;80;20977;-56
2021/08/24 03:39:00;;;;;;;27.80;12.13;;;;;;;15.52;88.33;94427.33;1788992;78;21136;-56
2021/08/24 03:41:28;;;;;;;29.37;12.55;;;;;;;15.59;88.17;94418.61;1789213;80;21446;-55
2021/08/24 03:43:54;;;;;;;21.50;11.38;;;;;;;15.64;87.85;94426.22;1788898;80;21465;-55
2021/08/24 03:46:21;;;;;;;19.70;11.18;;;;;;;15.71;87.50;94425.04;1788881;80;21100;-55
2021/08/24 03:48:48;;;;;;;17.20;9.95;;;;;;;15.73;87.18;94432.25;1788852;80;20981;-55
2021/08/24 03:51:15;;;;;;;17.87;11.45;;;;;;;15.75;87.18;94437.42;1789008;80;20990;-56
2021/08/24 03:53:41;;;;;;;19.42;12.82;;;;;;;15.76;86.93;94440.33;1788964;80;21628;-56
2021/08/24 03:56:08;;;;;;;26.82;15.15;;;;;;;15.73;86.66;94430.22;1788931;80;20985;-56
2021/08/24 03:58:36;;;;;;;26.48;13.38;;;;;;;15.68;86.74;94442.02;1788870;80;21068;-56
2021/08/24 04:01:03;;;;;;;30.25;13.10;;;;;;;15.68;86.92;94439.25;1789075;80;21006;-56
2021/08/24 04:03:30;;;;;;;19.57;12.45;;;;;;;15.70;86.92;94436.75;1788956;80;21010;-56
2021/08/24 04:06:01;;;;;;;20.20;12.88;;;;;;;15.75;86.97;94433.91;1788875;80;20958;-56
2021/08/24 04:08:28;;;;;;;27.80;14.78;;;;;;;15.80;86.73;94432.58;1788952;80;21028;-56
2021/08/24 04:10:55;;;;;;;23.83;12.70;;;;;;;15.83;86.56;94437.15;1789261;80;21102;-56
2021/08/24 04:13:22;;;;;;;26.33;11.35;;;;;;;15.85;86.69;94444.36;1789017;80;21068;-56
2021/08/24 04:15:50;;;;;;;26.68;11.88;;;;;;;15.90;86.44;94449.20;1789060;80;21426;-56
2021/08/24 04:18:17;;;;;;;26.85;13.32;;;;;;;15.92;86.32;94458.43;1789101;80;20941;-56
2021/08/24 04:20:43;;;;;;;29.90;12.18;;;;;;;15.91;86.47;94454.13;1789246;80;20997;-56
2021/08/24 04:23:18;;;;;;;24.85;11.75;;;;;;;15.92;86.31;94450.85;1789250;80;22009;-56
2021/08/24 04:25:45;;;;;;;20.12;10.50;;;;;;;15.89;86.38;94457.38;1789278;80;20981;-56
2021/08/24 04:28:12;;;;;;;31.23;11.57;;;;;;;15.92;86.68;94457.05;1789129;80;21084;-56
2021/08/24 04:30:39;;;;;;;33.13;14.18;;;;;;;15.93;86.48;94459.95;1789095;80;20954;-56
2021/08/24 04:33:05;;;;;;;30.95;13.58;;;;;;;15.90;86.79;94454.74;1788975;80;20994;-56
2021/08/24 04:35:32;;;;;;;27.93;13.25;;;;;;;15.92;86.76;94448.08;1789093;80;21089;-56
2021/08/24 04:37:59;;;;;;;36.17;12.85;;;;;;;15.91;86.76;94449.33;1789034;80;21410;-56
2021/08/24 04:40:27;;;;;;;25.75;13.15;;;;;;;15.86;86.88;94452.81;1789022;78;21092;-56
2021/08/24 04:42:54;;;;;;;25.82;12.15;;;;;;;15.87;87.16;94454.34;1789318;80;21489;-57
2021/08/24 04:45:23;;;;;;;28.05;14.07;;;;;;;15.92;87.50;94455.66;1789115;80;20985;-56
2021/08/24 04:47:50;;;;;;;28.50;14.23;;;;;;;16.03;87.49;94451.59;1789001;80;21099;-56
2021/08/24 04:50:18;;;;;;;22.70;12.75;;;;;;;16.10;87.24;94450.53;1789122;80;21412;-56
2021/08/24 04:52:44;;;;;;;26.57;12.85;;;;;;;16.19;87.18;94449.61;1789138;80;21509;-57
2021/08/24 04:55:13;;;;;;;29.80;12.90;;;;;;;16.28;86.74;94452.23;1789219;80;21029;-56
2021/08/24 04:57:40;;;;;;;26.52;12.23;;;;;;;16.35;86.63;94448.43;1789243;80;21409;-57
2021/08/24 05:00:09;;;;;;;21.42;12.00;;;;;;;16.42;86.49;94458.47;1789420;80;21414;-57
2021/08/24 05:02:37;;;;;;;30.88;12.07;;;;;;;16.54;86.20;94466.27;1788944;80;21025;-57
2021/08/24 05:05:05;;;;;;;21.33;11.57;;;;;;;16.61;85.60;94466.59;1789099;80;20993;-58
2021/08/24 05:07:32;;;;;;;27.65;11.75;;;;;;;16.68;85.40;94471.69;1792067;80;21076;-56
2021/08/24 05:09:58;;;;;;;29.30;12.20;;;;;;;16.76;85.04;94472.75;1794846;80;20985;-57
2021/08/24 05:12:25;;;;;;;22.10;12.10;;;;;;;16.86;84.87;94474.10;1794641;80;21154;-56
2021/08/24 05:14:56;;;;;;;21.35;11.75;;;;;;;16.95;84.77;94471.77;1794533;80;20981;-57
2021/08/24 05:17:23;;;;;;;22.25;11.35;;;;;;;17.09;84.44;94479.20;1794570;80;21021;-57
2021/08/24 05:19:50;;;;;;;22.75;11.33;;;;;;;17.20;83.99;94470.91;1794823;80;21418;-57
2021/08/24 05:22:17;;;;;;;26.27;11.00;;;;;;;17.32;83.59;94471.12;1794711;80;20981;-58
2021/08/24 05:24:44;;;;;;;20.25;11.30;;;;;;;17.43;82.89;94474.01;1794567;79;21133;-56
2021/08/24 05:27:11;;;;;;;21.75;11.20;;;;;;;17.47;82.52;94465.54;1794416;79;20937;-57
2021/08/24 05:29:38;;;;;;;16.10;9.15;;;;;;;17.53;82.30;94466.34;1794872;80;21040;-56
2021/08/24 05:32:06;;;;;;;17.05;9.10;;;;;;;17.61;81.89;94472.20;1794594;80;21009;-57
2021/08/24 05:34:33;;;;;;;11.53;8.85;;;;;;;17.63;81.72;94471.82;1794703;80;20993;-57
2021/08/24 05:37:00;;;;;;;16.85;9.70;;;;;;;17.69;81.63;94470.45;1794632;79;21180;-57
2021/08/24 05:39:27;;;;;;;12.60;9.53;;;;;;;17.79;81.36;94478.73;1794675;78;21423;-56
2021/08/24 05:41:53;;;;;;;18.37;9.93;;;;;;;17.83;80.96;94470.91;1794531;80;21513;-57
2021/08/24 05:44:20;;;;;;;12.15;8.90;;;;;;;17.83;80.74;94475.08;1794963;80;20970;-56
2021/08/24 05:46:48;;;;;;;22.17;9.55;;;;;;;17.85;80.74;94478.12;1794818;80;20973;-55
2021/08/24 05:49:15;;;;;;;26.57;10.58;;;;;;;17.88;80.76;94486.23;1794600;80;21242;-57
2021/08/24 05:51:42;;;;;;;27.40;10.95;;;;;;;17.89;80.99;94476.63;1794549;80;21528;-56
2021/08/24 05:54:09;;;;;;;25.55;10.48;;;;;;;17.92;80.98;94470.67;1794791;80;20965;-58
2021/08/24 05:56:36;;;;;;;27.75;10.18;;;;;;;17.95;80.90;94471.05;1794447;80;20945;-57
2021/08/24 05:59:03;;;;;;;28.90;10.55;;;;;;;17.98;80.89;94474.25;1794612;80;20946;-57
2021/08/24 06:01:31;;;;;;;39.45;12.63;;;;;;;18.02;80.89;94474.77;1794538;80;21132;-57
2021/08/24 06:04:01;;;;;;;20.57;11.80;;;;;;;18.08;80.86;94488.06;1794505;80;20989;-58
2021/08/24 06:06:32;;;;;;;26.90;11.38;;;;;;;18.16;80.90;94476.59;1794452;79;20961;-57
2021/08/24 06:08:59;;;;;;;26.48;11.43;;;;;;;18.21;80.74;94471.78;1788994;80;20996;-59
2021/08/24 06:11:33;;;;;;;24.30;12.18;;;;;;;18.28;80.62;94479.66;1788879;80;21033;-58
2021/08/24 06:14:01;;;;;;;29.40;11.97;;;;;;;18.40;80.28;94481.22;1788883;80;21748;-57
2021/08/24 06:16:27;;;;;;;16.75;11.83;;;;;;;18.53;80.01;94489.86;1788981;80;20942;-57
2021/08/24 06:18:54;;;;;;;25.25;12.07;;;;;;;18.69;79.32;94487.73;1788964;80;21094;-57
2021/08/24 06:21:21;;;;;;;19.15;11.70;;;;;;;18.82;78.26;94486.58;1788919;80;20962;-59
2021/08/24 06:23:49;;;;;;;17.32;10.75;;;;;;;18.94;77.63;94494.30;1789073;80;21512;-56
2021/08/24 06:26:17;;;;;;;13.55;11.10;;;;;;;19.06;76.79;94481.27;1789038;80;21124;-57
2021/08/24 06:28:46;;;;;;;14.87;10.35;;;;;;;19.14;76.21;94478.08;1788917;80;20997;-59
2021/08/24 06:31:19;;;;;;;14.78;10.75;;;;;;;19.28;75.62;94487.47;1784076;80;20995;-57
2021/08/24 06:33:46;;;;;;;12.40;10.13;;;;;;;19.36;75.18;94473.89;1788998;80;21033;-57
2021/08/24 06:36:14;;;;;;;11.05;9.33;;;;;;;19.44;74.96;94479.71;1788805;80;21047;-57
2021/08/24 06:38:42;;;;;;;20.45;12.18;;;;;;;19.50;74.52;94484.02;1788898;78;21179;-56
2021/08/24 06:41:09;;;;;;;12.65;10.10;;;;;;;19.46;74.47;94480.73;1788722;80;20954;-57
2021/08/24 06:43:36;;;;;;;18.82;11.90;;;;;;;19.46;74.75;94473.75;1788917;80;20981;-57
2021/08/24 06:46:04;;;;;;;15.00;11.00;;;;;;;19.54;74.93;94480.31;1788889;79;21013;-57
2021/08/24 06:48:32;;;;;;;21.02;11.45;;;;;;;19.58;74.74;94482.20;1788763;80;21195;-57
2021/08/24 06:50:58;;;;;;;40.50;13.58;;;;;;;19.57;74.67;94482.08;1788876;80;21127;-59
2021/08/24 06:53:25;;;;;;;32.70;13.28;;;;;;;19.53;74.73;94482.98;1788833;79;21037;-57
2021/08/24 06:55:53;;;;;;;20.23;12.37;;;;;;;19.53;74.82;94483.64;1758029;80;33041;-57
2021/08/24 06:58:21;;;;;;;23.75;13.45;;;;;;;19.55;74.79;94490.20;1788870;80;20946;-56
2021/08/24 07:00:48;;;;;;;20.97;11.57;;;;;;;19.57;74.68;94479.94;1789058;80;21445;-56
2021/08/24 07:03:15;;;;;;;25.27;13.22;;;;;;;19.57;74.82;94477.15;1788697;80;21131;-57
2021/08/24 07:05:45;;;;;;;32.13;12.53;;;;;;;19.57;75.14;94484.88;1788985;79;20969;-57
2021/08/24 07:08:14;;;;;;;29.55;13.00;;;;;;;19.59;75.39;94485.12;1792315;80;21517;-58
2021/08/24 07:10:42;;;;;;;44.90;14.13;;;;;;;19.61;75.85;94492.99;1794445;80;20946;-57
2021/08/24 07:13:10;;;;;;;51.75;15.40;;;;;;;19.58;76.10;94496.81;1794396;80;20962;-57
2021/08/24 07:15:39;;;;;;;53.83;14.65;;;;;;;19.51;76.60;94499.48;1794014;79;20970;-58
2021/08/24 07:18:07;;;;;;;59.27;15.55;;;;;;;19.47;77.29;94498.98;1794570;80;21013;-58
2021/08/24 07:20:34;;;;;;;67.20;17.98;;;;;;;19.42;77.75;94508.14;1794471;80;21052;-58
2021/08/24 07:23:02;;;;;;;54.30;16.15;;;;;;;19.36;78.06;94507.37;1794384;80;21402;-57
2021/08/24 07:25:31;;;;;;;83.22;18.35;;;;;;;19.34;79.15;94511.95;1794477;80;20984;-57
2021/08/24 07:27:58;;;;;;;45.63;14.73;;;;;;;19.29;79.95;94509.29;1794612;80;21223;-59
2021/08/24 07:30:24;;;;;;;60.08;18.77;;;;;;;19.24;80.24;94516.27;1794318;80;21013;-59
2021/08/24 07:32:51;;;;;;;43.58;17.32;;;;;;;19.19;80.07;94521.97;1794480;80;20950;-57
2021/08/24 07:35:19;;;;;;;44.42;15.88;;;;;;;19.19;80.98;94520.57;1794500;80;21417;-58
2021/08/24 07:37:45;;;;;;;36.20;16.25;;;;;;;19.18;81.25;94520.45;1794601;80;21540;-58
2021/08/24 07:40:13;;;;;;;53.08;17.50;;;;;;;19.17;81.32;94516.14;1794352;78;21169;-58
2021/08/24 07:42:40;;;;;;;24.72;13.93;;;;;;;19.23;81.95;94521.06;1794266;80;21001;-58
2021/08/24 07:45:09;;;;;;;18.80;11.55;;;;;;;19.24;82.73;94514.25;1794451;80;21642;-58
2021/08/24 07:47:35;;;;;;;16.57;10.38;;;;;;;19.26;83.49;94510.31;1794550;80;21001;-57
2021/08/24 07:50:04;;;;;;;22.22;10.80;;;;;;;19.30;83.89;94510.81;1794646;80;21044;-59
2021/08/24 07:52:30;;;;;;;19.60;13.00;;;;;;;19.30;84.07;94516.39;1794647;80;21826;-58
2021/08/24 07:54:57;;;;;;;31.70;13.18;;;;;;;19.29;84.75;94517.66;1794632;80;21437;-58
2021/08/24 07:57:25;;;;;;;34.20;16.35;;;;;;;19.24;84.94;94515.64;1794636;79;20989;-62
2021/08/24 07:59:54;;;;;;;32.35;18.25;;;;;;;19.20;85.26;94523.48;1794623;80;21037;-57
2021/08/24 08:02:21;;;;;;;31.57;16.27;;;;;;;19.19;85.52;94521.97;1794763;79;21413;-58
2021/08/24 08:04:48;;;;;;;24.57;14.07;;;;;;;19.21;85.86;94524.26;1794586;80;21145;-58
2021/08/24 08:07:16;;;;;;;24.63;14.38;;;;;;;19.26;86.13;94529.06;1792169;80;20993;-59
2021/08/24 08:09:43;;;;;;;23.60;14.30;;;;;;;19.31;86.10;94519.92;1759938;81;21032;-58
2021/08/24 08:12:11;;;;;;;24.45;13.13;;;;;;;19.30;86.43;94509.41;1759995;81;21084;-56
2021/08/24 08:14:39;;;;;;;19.20;12.45;;;;;;;19.32;86.84;94513.07;1760103;81;20933;-57
2021/08/24 08:17:10;;;;;;;17.15;11.10;;;;;;;19.34;86.88;94517.53;1760018;81;21722;-57
2021/08/24 08:19:38;;;;;;;14.00;11.20;;;;;;;19.32;86.75;94512.45;1759972;81;20981;-57
2021/08/24 08:22:05;;;;;;;18.92;11.63;;;;;;;19.30;86.53;94509.41;1759932;80;21020;-58
2021/08/24 08:24:33;;;;;;;14.30;10.48;;;;;;;19.32;86.81;94504.70;1759911;81;21020;-58
2021/08/24 08:27:00;;;;;;;14.50;10.53;;;;;;;19.37;86.96;94511.67;1760152;81;20933;-56
2021/08/24 08:29:27;;;;;;;18.15;12.70;;;;;;;19.44;86.89;94514.59;1760291;81;21438;-57
2021/08/24 08:32:00;;;;;;;21.42;13.85;;;;;;;19.50;87.03;94504.17;1760025;81;21025;-60
2021/08/24 08:34:26;;;;;;;12.05;10.80;;;;;;;19.55;87.38;94503.42;1759310;81;21029;-58
2021/08/24 08:36:53;;;;;;;17.45;11.83;;;;;;;19.58;87.69;94504.53;1760040;81;21495;-57
2021/08/24 08:39:20;;;;;;;19.57;11.35;;;;;;;19.61;87.89;94504.93;1760166;80;21556;-57
2021/08/24 08:42:25;;;;;;;13.00;9.90;;;;;;;19.67;87.94;94504.27;1759855;81;21316;-57
2021/08/24 08:45:02;;;;;;;14.83;10.85;;;;;;;19.71;87.87;94501.22;1759872;81;21492;-57
2021/08/24 08:48:13;;;;;;;12.45;8.45;;;;;;;19.81;87.76;94504.62;1760027;81;22161;-58
2021/08/24 08:50:51;;;;;;;9.53;8.30;;;;;;;19.92;87.70;94496.19;1759991;81;21074;-57
2021/08/24 08:53:42;;;;;;;10.38;7.67;;;;;;;19.99;87.09;94494.27;1755968;81;20993;-59
2021/08/24 08:56:25;;;;;;;9.68;6.70;;;;;;;20.06;86.75;94505.55;1759875;81;20981;-59
2021/08/24 08:59:16;;;;;;;8.83;7.53;;;;;;;20.16;86.03;94499.19;1759826;81;20998;-59
2021/08/24 09:02:19;;;;;;;14.30;10.78;;;;;;;20.29;85.33;94495.16;1741591;82;21073;-58
2021/08/24 09:04:47;;;;;;;12.40;8.50;;;;;;;20.37;84.81;94496.89;1713416;83;21040;-58
2021/08/24 09:07:32;;;;;;;12.80;9.33;;;;;;;20.44;83.99;94494.97;1751210;81;21059;-59
2021/08/24 09:10:01;;;;;;;11.48;8.25;;;;;;;20.56;84.12;94491.47;1759876;81;21001;-57
2021/08/24 09:12:29;;;;;;;16.02;11.78;;;;;;;20.66;83.83;94478.67;1759769;80;21448;-56
2021/08/24 09:14:56;;;;;;;12.82;10.35;;;;;;;20.69;83.75;94485.40;1759872;81;21036;-57
2021/08/24 09:17:31;;;;;;;13.80;10.70;;;;;;;20.74;83.48;94481.80;1759912;80;21012;-57
2021/08/24 09:20:02;;;;;;;11.05;9.15;;;;;;;20.76;82.97;94479.23;1760036;81;21413;-57
2021/08/24 09:22:29;;;;;;;17.57;13.20;;;;;;;20.81;82.49;94484.67;1760161;80;21826;-57
2021/08/24 09:24:55;;;;;;;15.80;11.55;;;;;;;20.85;81.78;94476.78;1759770;81;21024;-57
2021/08/24 09:27:28;;;;;;;12.33;10.43;;;;;;;20.85;81.72;94475.39;1760064;81;21563;-56
2021/08/24 09:29:57;;;;;;;11.18;10.05;;;;;;;20.87;81.76;94477.02;1758908;81;21037;-58
2021/08/24 09:32:25;;;;;;;10.82;9.68;;;;;;;20.84;81.56;94483.66;1759885;81;21069;-56
2021/08/24 09:35:16;;;;;;;12.80;9.98;;;;;;;20.75;81.56;94485.36;1759948;81;21137;-58
2021/08/24 09:37:43;;;;;;;12.68;11.10;;;;;;;20.75;81.84;94479.77;1752373;81;21032;-58
2021/08/24 09:40:13;;;;;;;16.25;10.18;;;;;;;20.84;82.17;94472.48;1760044;80;20977;-58
2021/08/24 09:42:44;;;;;;;14.65;11.60;;;;;;;20.92;81.69;94481.84;1759904;81;21459;-58
2021/08/24 09:45:26;;;;;;;11.90;10.63;;;;;;;20.90;81.34;94480.20;1759559;81;21396;-57
2021/08/24 09:48:06;;;;;;;14.30;11.22;;;;;;;20.92;81.51;94481.84;1759905;81;21071;-57
2021/08/24 09:50:37;;;;;;;13.65;11.57;;;;;;;20.96;81.64;94492.09;1760258;81;20981;-59
2021/08/24 09:53:08;;;;;;;17.80;14.93;;;;;;;20.87;81.00;94494.58;1759859;81;20973;-59
2021/08/24 09:55:39;;;;;;;19.95;17.40;;;;;;;20.77;81.30;94499.58;1759819;81;20981;-59
2021/08/24 09:58:07;;;;;;;21.40;18.40;;;;;;;20.69;81.57;94490.22;1758647;81;21029;-59
2021/08/24 10:01:02;;;;;;;15.90;11.60;;;;;;;20.64;81.92;94489.00;1759805;81;21112;-57
2021/08/24 10:03:34;;;;;;;15.53;11.03;;;;;;;20.64;81.49;94491.02;1758285;80;20929;-59
2021/08/24 10:06:27;;;;;;;14.25;12.65;;;;;;;20.74;81.30;94496.43;1760131;81;21390;-62
2021/08/24 10:08:58;;;;;;;15.75;12.00;;;;;;;20.89;80.68;94495.47;1759753;79;20980;-57
2021/08/24 10:11:31;;;;;;;14.33;11.73;;;;;;;21.09;80.89;94485.27;1757286;81;21420;-57
2021/08/24 10:14:15;;;;;;;14.07;11.05;;;;;;;21.25;81.10;94492.10;1759790;81;21179;-58
2021/08/24 10:16:44;;;;;;;11.85;10.32;;;;;;;21.41;80.92;94486.23;1756060;81;21504;-58
2021/08/24 10:19:26;;;;;;;13.45;10.45;;;;;;;21.60;80.87;94489.85;1760005;80;21059;-58
2021/08/24 10:22:00;;;;;;;17.40;13.13;;;;;;;21.76;80.60;94487.55;1759712;81;20993;-58
2021/08/24 10:24:35;;;;;;;12.68;9.93;;;;;;;21.85;80.01;94476.01;1759822;81;20984;-58
2021/08/24 10:27:09;;;;;;;11.85;10.20;;;;;;;21.94;78.99;94475.63;1759818;81;21129;-56
2021/08/24 10:29:38;;;;;;;11.65;10.43;;;;;;;22.13;78.73;94472.98;1759751;81;21049;-57
2021/08/24 10:32:09;;;;;;;19.65;9.90;;;;;;;22.37;77.96;94475.09;1732072;81;21086;-58
2021/08/24 10:34:43;;;;;;;15.28;9.75;;;;;;;22.57;76.98;94479.42;1759672;81;21535;-57
2021/08/24 10:37:45;;;;;;;16.93;9.40;;;;;;;22.78;76.88;94470.57;1759892;81;20993;-59
2021/08/24 10:40:23;;;;;;;12.93;9.13;;;;;;;23.00;75.25;94475.20;1732541;81;21147;-57
2021/08/24 10:43:14;;;;;;;11.95;8.10;;;;;;;23.08;74.78;94469.72;1759782;81;21417;-58
2021/08/24 10:45:44;;;;;;;11.10;8.55;;;;;;;23.19;73.21;94468.92;1760003;81;20969;-60
2021/08/24 10:48:18;;;;;;;10.30;7.87;;;;;;;23.52;72.29;94464.14;1759891;81;20953;-58
2021/08/24 10:51:09;;;;;;;14.95;7.42;;;;;;;23.93;70.63;94465.81;1759867;81;21032;-57
2021/08/24 10:53:59;;;;;;;13.50;7.10;;;;;;;24.22;66.93;94461.91;1759773;80;21097;-57
2021/08/24 10:56:37;;;;;;;11.15;6.90;;;;;;;24.42;64.91;94468.27;1759676;81;21126;-58
2021/08/24 10:59:41;;;;;;;9.50;6.90;;;;;;;24.46;63.21;94468.67;1760063;81;20986;-57
2021/08/24 11:02:32;;;;;;;10.03;7.45;;;;;;;24.35;63.07;94477.37;1756825;81;20981;-57
2021/08/24 11:05:23;;;;;;;8.20;6.80;;;;;;;24.08;62.99;94479.45;1759825;81;21095;-57
2021/08/24 11:08:16;;;;;;;7.35;6.53;;;;;;;23.81;63.42;94474.34;1742185;81;21414;-58
2021/08/24 11:11:06;;;;;;;8.18;6.90;;;;;;;23.57;63.75;94476.58;1767435;81;21027;-57
2021/08/24 11:14:14;;;;;;;7.47;6.47;;;;;;;23.40;65.42;94482.47;1768024;81;20993;-58
2021/08/24 11:17:01;;;;;;;7.83;7.03;;;;;;;23.18;65.60;94480.04;1768024;81;20961;-58
2021/08/24 11:20:07;;;;;;;7.97;7.17;;;;;;;22.91;66.63;94481.86;1767973;79;21401;-58
2021/08/24 11:23:05;;;;;;;7.85;7.10;;;;;;;22.69;67.46;94479.39;1767996;81;21075;-57
2021/08/24 11:25:46;;;;;;;7.95;6.80;;;;;;;22.43;68.45;94472.99;1767961;81;21188;-57
2021/08/24 11:28:52;;;;;;;7.97;7.17;;;;;;;22.31;68.75;94474.39;1761939;81;21036;-57
2021/08/24 11:31:36;;;;;;;11.53;7.72;;;;;;;22.27;68.78;94473.94;1737062;82;20968;-58
2021/08/24 11:34:22;;;;;;;22.73;9.63;;;;;;;22.18;69.02;94479.16;1731759;82;20997;-57
2021/08/24 11:37:06;;;;;;;10.60;6.80;;;;;;;22.18;68.87;94475.73;1737192;82;21099;-58
2021/08/24 11:39:53;;;;;;;8.60;7.60;;;;;;;22.27;68.96;94473.94;1737668;81;21525;-57
2021/08/24 11:42:44;;;;;;;8.10;6.97;;;;;;;22.27;68.19;94471.80;1759317;81;21517;-57
2021/08/24 11:45:29;;;;;;;9.10;7.60;;;;;;;22.26;68.32;94480.84;1765759;81;21014;-57
2021/08/24 11:48:03;;;;;;;22.70;10.23;;;;;;;22.19;69.92;94480.05;1766072;81;21471;-57